MAXM74 CYQQ-CYQQ
Flight info
| Callsign | MAXM74 |
|---|---|
| Flight time | 0h 42m |
| Altitude | 10500 |
| Route | VFR |
| Aircraft | F18H/M-V/N |
Departure
| Time | 2026-04-12 13:08 |
|---|---|
| Airport | Comox Valley International Airport / CFB Comox (CYQQ) |
Arrival
| Time | 2026-04-12 13:50 |
|---|---|
| Airport | Comox Valley International Airport / CFB Comox (CYQQ) |
| Time | Latitude | Longitude | Altitude | Speed | Heading |
|---|---|---|---|---|---|
| 2026-04-12 13:03 | 49.71754 | -124.90108 | 86 ft | 0 kts | 51° |
| 2026-04-12 13:05 | 49.71774 | -124.90071 | 85 ft | 12 kts | 50° |
| 2026-04-12 13:06 | 49.71753 | -124.89941 | 85 ft | 27 kts | 136° |
| 2026-04-12 13:06 | 49.71606 | -124.89719 | 88 ft | 31 kts | 134° |
| 2026-04-12 13:06 | 49.71450 | -124.89476 | 88 ft | 32 kts | 135° |
| 2026-04-12 13:06 | 49.71285 | -124.89219 | 86 ft | 33 kts | 134° |
| 2026-04-12 13:07 | 49.71137 | -124.88981 | 86 ft | 27 kts | 136° |
| 2026-04-12 13:07 | 49.71001 | -124.88784 | 90 ft | 34 kts | 135° |
| 2026-04-12 13:07 | 49.70864 | -124.88513 | 87 ft | 18 kts | 62° |
| 2026-04-12 13:07 | 49.71003 | -124.88505 | 93 ft | 38 kts | 318° |
| 2026-04-12 13:08 | 49.71669 | -124.89558 | 475 ft | 212 kts | 309° |
| 2026-04-12 13:08 | 49.72446 | -124.90744 | 3155 ft | 168 kts | 137° |
| 2026-04-12 13:08 | 49.71302 | -124.88960 | 270 ft | 336 kts | 135° |
| 2026-04-12 13:08 | 49.70775 | -124.88235 | 3077 ft | 169 kts | 313° |
| 2026-04-12 13:09 | 49.71897 | -124.89941 | 408 ft | 293 kts | 317° |
| 2026-04-12 13:09 | 49.73215 | -124.89887 | 1853 ft | 121 kts | 195° |
| 2026-04-12 13:09 | 49.71952 | -124.90042 | 731 ft | 235 kts | 127° |
| 2026-04-12 13:09 | 49.70564 | -124.87977 | 327 ft | 303 kts | 133° |
| 2026-04-12 13:10 | 49.69410 | -124.86107 | 3282 ft | 16 kts | 138° |
| 2026-04-12 13:10 | 49.69429 | -124.86287 | 1853 ft | 180 kts | 320° |
| 2026-04-12 13:10 | 49.70836 | -124.88260 | 271 ft | 309 kts | 315° |
| 2026-04-12 13:10 | 49.71703 | -124.89576 | 3843 ft | 71 kts | 135° |
| 2026-04-12 13:11 | 49.70712 | -124.88088 | 2871 ft | 199 kts | 135° |
| 2026-04-12 13:11 | 49.71669 | -124.89516 | 354 ft | 274 kts | 317° |
| 2026-04-12 13:11 | 49.73029 | -124.90936 | 960 ft | 207 kts | 322° |
| 2026-04-12 13:11 | 49.73399 | -124.91858 | 906 ft | 182 kts | 136° |
| 2026-04-12 13:12 | 49.72184 | -124.90274 | 425 ft | 308 kts | 135° |
| 2026-04-12 13:12 | 49.70408 | -124.87871 | 301 ft | 376 kts | 135° |
| 2026-04-12 13:12 | 49.69862 | -124.85047 | 3993 ft | 16 kts | 287° |
| 2026-04-12 13:12 | 49.69334 | -124.84306 | 3927 ft | 80 kts | 330° |
| 2026-04-12 13:13 | 49.70087 | -124.86304 | 1468 ft | 265 kts | 286° |
| 2026-04-12 13:13 | 49.71260 | -124.88919 | 443 ft | 343 kts | 317° |
| 2026-04-12 13:13 | 49.72005 | -124.87942 | 847 ft | 313 kts | 185° |
| 2026-04-12 13:13 | 49.72471 | -124.90454 | 888 ft | 380 kts | 332° |
| 2026-04-12 13:14 | 49.73107 | -124.88581 | 1622 ft | 263 kts | 76° |
| 2026-04-12 13:14 | 49.74204 | -124.87929 | 2287 ft | 202 kts | 306° |
| 2026-04-12 13:14 | 49.74170 | -124.90322 | 958 ft | 275 kts | 252° |
| 2026-04-12 13:14 | 49.73308 | -124.92100 | 963 ft | 183 kts | 144° |
| 2026-04-12 13:15 | 49.72233 | -124.90390 | 385 ft | 273 kts | 135° |
| 2026-04-12 13:15 | 49.70797 | -124.88113 | 469 ft | 332 kts | 136° |
| 2026-04-12 13:15 | 49.69333 | -124.85349 | 1044 ft | 308 kts | 88° |
| 2026-04-12 13:15 | 49.68489 | -124.83227 | 932 ft | 247 kts | 212° |
| 2026-04-12 13:16 | 49.68440 | -124.85200 | 770 ft | 202 kts | 329° |
| 2026-04-12 13:16 | 49.69577 | -124.86394 | 336 ft | 190 kts | 319° |
| 2026-04-12 13:16 | 49.70463 | -124.87668 | 278 ft | 150 kts | 314° |
| 2026-04-12 13:16 | 49.71109 | -124.88686 | 439 ft | 110 kts | 314° |
| 2026-04-12 13:17 | 49.71558 | -124.89413 | 514 ft | 90 kts | 315° |
| 2026-04-12 13:17 | 49.72082 | -124.90225 | 583 ft | 157 kts | 315° |
| 2026-04-12 13:17 | 49.72698 | -124.92271 | 993 ft | 270 kts | 249° |
| 2026-04-12 13:17 | 49.71392 | -124.94682 | 1735 ft | 340 kts | 209° |
| 2026-04-12 13:18 | 49.69408 | -124.93908 | 1364 ft | 433 kts | 80° |
| 2026-04-12 13:18 | 49.71533 | -124.89080 | 719 ft | 624 kts | 43° |
| 2026-04-12 13:18 | 49.72176 | -124.87932 | 19109 ft | 47 kts | 219° |
| 2026-04-12 13:19 | 49.71897 | -124.88081 | 16378 ft | 110 kts | 223° |
| 2026-04-12 13:19 | 49.71997 | -124.89399 | 7973 ft | 355 kts | 217° |
| 2026-04-12 13:19 | 49.71683 | -124.89284 | 4119 ft | 210 kts | 229° |
| 2026-04-12 13:19 | 49.72062 | -124.88742 | 1704 ft | 261 kts | 12° |
| 2026-04-12 13:20 | 49.74543 | -124.88170 | 741 ft | 388 kts | 339° |
| 2026-04-12 13:20 | 49.74855 | -124.91014 | 716 ft | 329 kts | 212° |
| 2026-04-12 13:20 | 49.72241 | -124.90366 | 741 ft | 511 kts | 135° |
| 2026-04-12 13:20 | 49.69388 | -124.86002 | 2081 ft | 512 kts | 131° |
| 2026-04-12 13:21 | 49.68660 | -124.84697 | 8381 ft | 214 kts | 316° |
| 2026-04-12 13:21 | 49.69842 | -124.86712 | 1807 ft | 399 kts | 309° |
| 2026-04-12 13:21 | 49.71696 | -124.89828 | 485 ft | 355 kts | 315° |
| 2026-04-12 13:21 | 49.73378 | -124.90496 | 501 ft | 251 kts | 28° |
| 2026-04-12 13:22 | 49.74128 | -124.89169 | 1472 ft | 169 kts | 217° |
| 2026-04-12 13:22 | 49.72166 | -124.89622 | 481 ft | 413 kts | 182° |
| 2026-04-12 13:22 | 49.68777 | -124.89629 | 900 ft | 492 kts | 163° |
| 2026-04-12 13:22 | 49.67195 | -124.86200 | 1343 ft | 431 kts | 61° |
| 2026-04-12 13:23 | 49.69192 | -124.85415 | 668 ft | 325 kts | 302° |
| 2026-04-12 13:23 | 49.70644 | -124.87967 | 412 ft | 302 kts | 316° |
| 2026-04-12 13:23 | 49.72046 | -124.90045 | 921 ft | 284 kts | 322° |
| 2026-04-12 13:23 | 49.74192 | -124.91105 | 1111 ft | 356 kts | 292° |
| 2026-04-12 13:24 | 49.73149 | -124.91636 | 912 ft | 246 kts | 139° |
| 2026-04-12 13:24 | 49.71688 | -124.89505 | 582 ft | 325 kts | 135° |
| 2026-04-12 13:24 | 49.70012 | -124.86521 | 657 ft | 389 kts | 93° |
| 2026-04-12 13:24 | 49.68754 | -124.82713 | 739 ft | 457 kts | 179° |
| 2026-04-12 13:25 | 49.68615 | -124.85317 | 600 ft | 347 kts | 329° |
| 2026-04-12 13:25 | 49.70440 | -124.87629 | 599 ft | 311 kts | 311° |
| 2026-04-12 13:25 | 49.71970 | -124.89980 | 639 ft | 344 kts | 329° |
| 2026-04-12 13:25 | 49.74438 | -124.90439 | 946 ft | 360 kts | 309° |
| 2026-04-12 13:26 | 49.73550 | -124.92206 | 1039 ft | 322 kts | 142° |
| 2026-04-12 13:26 | 49.71765 | -124.89785 | 523 ft | 356 kts | 139° |
| 2026-04-12 13:26 | 49.70079 | -124.86837 | 910 ft | 370 kts | 102° |
| 2026-04-12 13:26 | 49.69086 | -124.83314 | 1122 ft | 372 kts | 156° |
| 2026-04-12 13:27 | 49.67516 | -124.84952 | 1253 ft | 315 kts | 291° |
| 2026-04-12 13:27 | 49.69294 | -124.86162 | 614 ft | 318 kts | 324° |
| 2026-04-12 13:27 | 49.71151 | -124.88738 | 393 ft | 403 kts | 315° |
| 2026-04-12 13:27 | 49.72527 | -124.87667 | 972 ft | 446 kts | 140° |
| 2026-04-12 13:28 | 49.71003 | -124.88495 | 944 ft | 455 kts | 282° |
| 2026-04-12 13:28 | 49.74516 | -124.91609 | 1920 ft | 407 kts | 335° |
| 2026-04-12 13:28 | 49.75310 | -124.93941 | 1502 ft | 230 kts | 169° |
| 2026-04-12 13:28 | 49.74438 | -124.93347 | 1199 ft | 215 kts | 145° |
| 2026-04-12 13:29 | 49.73112 | -124.91705 | 670 ft | 269 kts | 136° |
| 2026-04-12 13:29 | 49.71716 | -124.89547 | 613 ft | 302 kts | 134° |
| 2026-04-12 13:29 | 49.69400 | -124.86441 | 773 ft | 338 kts | 171° |
| 2026-04-12 13:29 | 49.67211 | -124.85675 | 1165 ft | 321 kts | 105° |
| 2026-04-12 13:30 | 49.68080 | -124.84438 | 611 ft | 282 kts | 348° |
| 2026-04-12 13:30 | 49.69176 | -124.85658 | 612 ft | 163 kts | 312° |
| 2026-04-12 13:30 | 49.70003 | -124.86969 | 297 ft | 162 kts | 315° |
| 2026-04-12 13:30 | 49.70640 | -124.87951 | 376 ft | 98 kts | 316° |
| 2026-04-12 13:31 | 49.71095 | -124.88632 | 533 ft | 90 kts | 317° |
| 2026-04-12 13:31 | 49.71641 | -124.89484 | 648 ft | 180 kts | 313° |
| 2026-04-12 13:31 | 49.72475 | -124.91988 | 1046 ft | 372 kts | 254° |
| 2026-04-12 13:31 | 49.70276 | -124.95243 | 1294 ft | 488 kts | 211° |
| 2026-04-12 13:32 | 49.68372 | -124.93335 | 1450 ft | 457 kts | 68° |
| 2026-04-12 13:32 | 49.71287 | -124.89678 | 691 ft | 661 kts | 36° |
| 2026-04-12 13:32 | 49.75223 | -124.85918 | 1588 ft | 608 kts | 17° |
| 2026-04-12 13:32 | 49.78510 | -124.88256 | 1477 ft | 535 kts | 306° |
| 2026-04-12 13:33 | 49.78883 | -124.93117 | 1195 ft | 455 kts | 215° |
| 2026-04-12 13:33 | 49.75570 | -124.93638 | 1401 ft | 558 kts | 165° |
| 2026-04-12 13:33 | 49.72163 | -124.90315 | 516 ft | 606 kts | 134° |
| 2026-04-12 13:33 | 49.69880 | -124.85412 | 1023 ft | 574 kts | 89° |
| 2026-04-12 13:34 | 49.67745 | -124.83606 | 1254 ft | 409 kts | 238° |
| 2026-04-12 13:34 | 49.68580 | -124.86476 | 850 ft | 333 kts | 334° |
| 2026-04-12 13:34 | 49.70715 | -124.88028 | 641 ft | 335 kts | 322° |
| 2026-04-12 13:34 | 49.72426 | -124.89880 | 1179 ft | 341 kts | 20° |
| 2026-04-12 13:35 | 49.75072 | -124.89770 | 925 ft | 404 kts | 316° |
| 2026-04-12 13:35 | 49.73990 | -124.90930 | 687 ft | 405 kts | 161° |
| 2026-04-12 13:35 | 49.70440 | -124.89189 | 587 ft | 619 kts | 163° |
| 2026-04-12 13:35 | 49.66495 | -124.87388 | 1244 ft | 542 kts | 163° |
| 2026-04-12 13:36 | 49.65467 | -124.84405 | 796 ft | 337 kts | 359° |
| 2026-04-12 13:36 | 49.67565 | -124.85081 | 812 ft | 290 kts | 345° |
| 2026-04-12 13:36 | 49.69380 | -124.86155 | 679 ft | 277 kts | 319° |
| 2026-04-12 13:36 | 49.70721 | -124.88129 | 588 ft | 246 kts | 313° |
| 2026-04-12 13:37 | 49.71854 | -124.89772 | 1046 ft | 213 kts | 316° |
| 2026-04-12 13:37 | 49.72252 | -124.88463 | 1013 ft | 320 kts | 117° |
| 2026-04-12 13:37 | 49.71185 | -124.84902 | 1211 ft | 410 kts | 112° |
| 2026-04-12 13:37 | 49.69984 | -124.80405 | 1361 ft | 488 kts | 112° |
| 2026-04-12 13:38 | 49.68588 | -124.75173 | 869 ft | 559 kts | 112° |
| 2026-04-12 13:38 | 49.67139 | -124.69744 | 1225 ft | 514 kts | 112° |
| 2026-04-12 13:38 | 49.65865 | -124.64972 | 1324 ft | 461 kts | 112° |
| 2026-04-12 13:38 | 49.64682 | -124.60540 | 1436 ft | 434 kts | 112° |
| 2026-04-12 13:39 | 49.63556 | -124.56323 | 1465 ft | 415 kts | 112° |
| 2026-04-12 13:39 | 49.62476 | -124.52280 | 1481 ft | 400 kts | 112° |
| 2026-04-12 13:39 | 49.61433 | -124.48377 | 1492 ft | 387 kts | 112° |
| 2026-04-12 13:39 | 49.60420 | -124.44587 | 1494 ft | 377 kts | 112° |
| 2026-04-12 13:40 | 49.59435 | -124.40899 | 1490 ft | 367 kts | 112° |
| 2026-04-12 13:40 | 49.58472 | -124.37298 | 1486 ft | 359 kts | 112° |
| 2026-04-12 13:40 | 49.57530 | -124.33773 | 1494 ft | 353 kts | 112° |
| 2026-04-12 13:40 | 49.56577 | -124.30374 | 1492 ft | 346 kts | 118° |
| 2026-04-12 13:41 | 49.55170 | -124.27445 | 1504 ft | 337 kts | 135° |
| 2026-04-12 13:41 | 49.53413 | -124.25084 | 1498 ft | 333 kts | 141° |
| 2026-04-12 13:41 | 49.51582 | -124.22924 | 1491 ft | 329 kts | 143° |
| 2026-04-12 13:41 | 49.49744 | -124.20853 | 1488 ft | 326 kts | 144° |
| 2026-04-12 13:42 | 49.47913 | -124.18830 | 1484 ft | 323 kts | 144° |
| 2026-04-12 13:42 | 49.46075 | -124.16860 | 1479 ft | 319 kts | 150° |
| 2026-04-12 13:42 | 49.44038 | -124.15617 | 1492 ft | 313 kts | 169° |
| 2026-04-12 13:42 | 49.41886 | -124.15465 | 1493 ft | 308 kts | 188° |
| 2026-04-12 13:43 | 49.39865 | -124.16398 | 1496 ft | 303 kts | 207° |
| 2026-04-12 13:43 | 49.38207 | -124.18269 | 1495 ft | 298 kts | 227° |
| 2026-04-12 13:43 | 49.37067 | -124.20885 | 1496 ft | 294 kts | 247° |
| 2026-04-12 13:43 | 49.36599 | -124.23901 | 1499 ft | 290 kts | 268° |
| 2026-04-12 13:44 | 49.36851 | -124.26943 | 1494 ft | 287 kts | 289° |
| 2026-04-12 13:44 | 49.37774 | -124.29627 | 1501 ft | 284 kts | 307° |
| 2026-04-12 13:44 | 49.39047 | -124.31973 | 1487 ft | 285 kts | 312° |
| 2026-04-12 13:44 | 49.40603 | -124.34539 | 1492 ft | 436 kts | 314° |
| 2026-04-12 13:45 | 49.43156 | -124.38598 | 1482 ft | 550 kts | 314° |
| 2026-04-12 13:45 | 49.45844 | -124.42803 | 1487 ft | 560 kts | 314° |
| 2026-04-12 13:45 | 49.48576 | -124.47047 | 1485 ft | 570 kts | 315° |
| 2026-04-12 13:45 | 49.51390 | -124.51403 | 1478 ft | 574 kts | 315° |
| 2026-04-12 13:46 | 49.54216 | -124.55770 | 1487 ft | 575 kts | 315° |
| 2026-04-12 13:46 | 49.57040 | -124.60132 | 1483 ft | 576 kts | 315° |
| 2026-04-12 13:46 | 49.59711 | -124.64263 | 1486 ft | 469 kts | 313° |
| 2026-04-12 13:46 | 49.61353 | -124.67788 | 1319 ft | 364 kts | 296° |
| 2026-04-12 13:47 | 49.62375 | -124.71168 | 1243 ft | 329 kts | 294° |
| 2026-04-12 13:47 | 49.63389 | -124.73906 | 1635 ft | 266 kts | 309° |
| 2026-04-12 13:47 | 49.64730 | -124.75653 | 1244 ft | 254 kts | 311° |
| 2026-04-12 13:47 | 49.65533 | -124.78054 | 1416 ft | 253 kts | 292° |
| 2026-04-12 13:48 | 49.66360 | -124.80454 | 1615 ft | 254 kts | 305° |
| 2026-04-12 13:48 | 49.67423 | -124.82549 | 1655 ft | 223 kts | 313° |
| 2026-04-12 13:48 | 49.68235 | -124.83859 | 1594 ft | 145 kts | 310° |
| 2026-04-12 13:48 | 49.68932 | -124.85085 | 1177 ft | 151 kts | 309° |
| 2026-04-12 13:49 | 49.69587 | -124.86265 | 547 ft | 143 kts | 311° |
| 2026-04-12 13:49 | 49.70242 | -124.87342 | 168 ft | 136 kts | 315° |
| 2026-04-12 13:49 | 49.70824 | -124.88228 | 88 ft | 95 kts | 315° |
| 2026-04-12 13:49 | 49.71221 | -124.88830 | 86 ft | 71 kts | 315° |
| 2026-04-12 13:50 | 49.71536 | -124.89319 | 91 ft | 54 kts | 314° |
| 2026-04-12 13:50 | 49.71551 | -124.89553 | 90 ft | 27 kts | 217° |
| 2026-04-12 13:50 | 49.71363 | -124.89719 | 87 ft | 27 kts | 228° |
| 2026-04-12 13:50 | 49.71412 | -124.90032 | 86 ft | 32 kts | 305° |
| 2026-04-12 13:51 | 49.71513 | -124.90093 | 86 ft | 8 kts | 49° |
| 2026-04-12 13:51 | 49.71521 | -124.90078 | 87 ft | 0 kts | 49° |